createdAt,value
2023-05-02T00:00:46.619Z,16.30
2023-05-02T00:03:19.362Z,16.20
2023-05-02T00:05:47.946Z,16.20
2023-05-02T00:08:16.558Z,16.20
2023-05-02T00:10:44.972Z,16.20
2023-05-02T00:13:14.746Z,16.20
2023-05-02T00:15:43.153Z,16.10
2023-05-02T00:18:12.025Z,16.10
2023-05-02T00:20:42.234Z,16.10
2023-05-02T00:23:12.299Z,16.10
2023-05-02T00:25:46.660Z,16.00
2023-05-02T00:28:16.919Z,16.00
2023-05-02T00:30:49.740Z,15.90
2023-05-02T00:33:18.158Z,15.90
2023-05-02T00:35:46.619Z,15.80
2023-05-02T00:38:15.029Z,15.80
2023-05-02T00:40:48.037Z,15.80
2023-05-02T00:43:18.200Z,15.70
2023-05-02T00:45:47.406Z,15.70
2023-05-02T00:48:18.080Z,15.60
2023-05-02T00:50:46.470Z,15.60
2023-05-02T00:53:14.906Z,15.50
2023-05-02T00:55:43.479Z,15.50
2023-05-02T00:58:15.263Z,15.50
2023-05-02T01:01:10.721Z,15.40
2023-05-02T01:03:48.132Z,15.40
2023-05-02T01:06:33.149Z,15.40
2023-05-02T01:09:11.720Z,15.30
2023-05-02T01:11:49.122Z,15.30
2023-05-02T01:14:18.500Z,15.20
2023-05-02T01:16:49.776Z,15.20
2023-05-02T01:19:26.989Z,15.20
2023-05-02T01:21:57.795Z,15.20
2023-05-02T01:24:29.970Z,15.10
2023-05-02T01:27:15.065Z,15.10
2023-05-02T01:29:46.202Z,15.00
2023-05-02T01:32:16.495Z,15.00
2023-05-02T01:34:49.066Z,15.00
2023-05-02T01:37:19.334Z,14.90
2023-05-02T01:39:49.623Z,14.90
2023-05-02T01:42:19.319Z,14.90
2023-05-02T01:44:50.706Z,14.90
2023-05-02T01:47:21.164Z,14.80
2023-05-02T01:49:49.901Z,14.80
2023-05-02T01:52:22.508Z,14.80
2023-05-02T01:54:53.351Z,14.70
2023-05-02T01:57:21.892Z,14.70
2023-05-02T01:59:52.611Z,14.70
2023-05-02T02:02:22.327Z,14.60
2023-05-02T02:04:51.866Z,14.60
2023-05-02T02:07:20.229Z,14.50
2023-05-02T02:09:48.742Z,14.50
2023-05-02T02:12:24.429Z,14.50
2023-05-02T02:15:01.148Z,14.40
2023-05-02T02:17:40.742Z,14.40
2023-05-02T02:20:12.490Z,14.40
2023-05-02T02:22:42.373Z,14.40
2023-05-02T02:25:14.210Z,14.40
2023-05-02T02:27:43.164Z,14.30
2023-05-02T02:30:16.600Z,14.30
2023-05-02T02:32:45.068Z,14.30
2023-05-02T02:35:13.711Z,14.30
2023-05-02T02:37:48.212Z,14.30
2023-05-02T02:40:24.615Z,14.30
2023-05-02T02:43:01.630Z,14.20
2023-05-02T02:45:38.424Z,14.20
2023-05-02T02:48:20.723Z,14.20
2023-05-02T02:51:01.390Z,14.20
2023-05-02T02:53:36.055Z,14.20
2023-05-02T02:56:08.026Z,14.20
2023-05-02T02:58:44.809Z,14.20
2023-05-02T03:01:19.893Z,14.20
2023-05-02T03:03:50.121Z,14.20
2023-05-02T03:06:19.775Z,14.20
2023-05-02T03:08:48.286Z,14.20
2023-05-02T03:11:16.985Z,14.20
2023-05-02T03:13:45.391Z,14.20
2023-05-02T03:16:33.870Z,14.20
2023-05-02T03:19:02.406Z,14.10
2023-05-02T03:21:31.800Z,14.20
2023-05-02T03:24:02.536Z,14.20
2023-05-02T03:26:32.387Z,14.20
2023-05-02T03:29:00.764Z,14.20
2023-05-02T03:31:30.572Z,14.20
2023-05-02T03:34:00.369Z,14.20
2023-05-02T03:36:28.823Z,14.20
2023-05-02T03:38:57.296Z,14.30
2023-05-02T03:41:26.088Z,14.30
2023-05-02T03:43:54.434Z,14.30
2023-05-02T03:46:23.491Z,14.40
2023-05-02T03:48:53.488Z,14.40
2023-05-02T03:51:22.085Z,14.50
2023-05-02T03:53:50.672Z,14.50
2023-05-02T03:56:21.059Z,14.60
2023-05-02T03:58:50.443Z,14.60
2023-05-02T04:01:18.817Z,14.60
2023-05-02T04:03:47.432Z,14.70
2023-05-02T04:06:17.416Z,14.70
2023-05-02T04:08:45.908Z,14.80
2023-05-02T04:11:14.319Z,14.80
2023-05-02T04:13:42.759Z,14.80
2023-05-02T04:16:11.510Z,14.80
2023-05-02T04:18:40.007Z,14.90
2023-05-02T04:21:10.591Z,15.00
2023-05-02T04:23:40.447Z,15.00
2023-05-02T04:26:08.905Z,15.00
2023-05-02T04:28:37.685Z,15.00
2023-05-02T04:31:06.199Z,15.10
2023-05-02T04:33:34.573Z,15.20
2023-05-02T04:36:03.038Z,15.20
2023-05-02T04:38:36.076Z,15.30
2023-05-02T04:41:08.797Z,15.30
2023-05-02T04:43:38.410Z,15.30
2023-05-02T04:46:06.957Z,15.40
2023-05-02T04:48:35.282Z,15.40
2023-05-02T04:51:03.834Z,15.50
2023-05-02T04:53:32.238Z,15.60
2023-05-02T04:56:00.841Z,15.60
2023-05-02T04:58:30.570Z,15.60
2023-05-02T05:00:58.923Z,15.70
2023-05-02T05:03:30.057Z,15.80
2023-05-02T05:05:58.713Z,15.80
2023-05-02T05:08:27.506Z,15.90
2023-05-02T05:10:55.827Z,16.00
2023-05-02T05:13:24.240Z,16.00
2023-05-02T05:15:54.091Z,16.10
2023-05-02T05:18:22.509Z,16.20
2023-05-02T05:20:50.863Z,16.20
2023-05-02T05:23:19.147Z,16.20
2023-05-02T05:25:47.589Z,16.30
2023-05-02T05:28:15.971Z,16.30
2023-05-02T05:30:44.400Z,16.40
2023-05-02T05:33:14.828Z,16.40
2023-05-02T05:35:43.359Z,16.50
2023-05-02T05:38:11.674Z,16.60
2023-05-02T05:40:40.057Z,16.60
2023-05-02T05:43:08.659Z,16.70
2023-05-02T05:45:39.915Z,16.70
2023-05-02T05:48:08.592Z,16.80
2023-05-02T05:50:38.480Z,16.90
2023-05-02T05:53:06.787Z,17.00
2023-05-02T05:55:37.338Z,17.00
2023-05-02T05:58:06.434Z,17.10
2023-05-02T06:00:36.554Z,17.20
2023-05-02T06:03:07.392Z,17.20
2023-05-02T06:05:39.207Z,17.30
2023-05-02T06:08:07.576Z,17.30
2023-05-02T06:10:36.042Z,17.40
2023-05-02T06:13:04.497Z,17.50
2023-05-02T06:15:35.463Z,17.60
2023-05-02T06:18:04.023Z,17.70
2023-05-02T06:20:32.396Z,17.70
2023-05-02T06:23:02.239Z,17.80
2023-05-02T06:25:30.506Z,17.80
2023-05-02T06:27:58.818Z,17.90
2023-05-02T06:30:27.161Z,18.00
2023-05-02T06:32:55.633Z,18.10
2023-05-02T06:35:23.903Z,18.20
2023-05-02T06:37:52.198Z,18.30
2023-05-02T06:40:21.949Z,18.30
2023-05-02T06:42:50.245Z,18.40
2023-05-02T06:45:18.687Z,18.40
2023-05-02T06:47:47.061Z,18.50
2023-05-02T06:50:15.420Z,18.60
2023-05-02T06:52:43.788Z,18.70
2023-05-02T06:56:13.439Z,18.80
2023-05-02T06:58:54.326Z,18.90
2023-05-02T07:01:22.980Z,18.90
2023-05-02T07:03:51.316Z,19.00
2023-05-02T07:06:19.717Z,19.10
2023-05-02T07:08:48.109Z,19.20
2023-05-02T07:11:16.545Z,19.30
2023-05-02T07:13:46.593Z,19.30
2023-05-02T07:16:15.270Z,19.40
2023-05-02T07:18:45.797Z,19.50
2023-05-02T07:21:14.449Z,19.50
2023-05-02T07:23:42.890Z,19.60
2023-05-02T07:26:11.397Z,19.70
2023-05-02T07:28:39.772Z,19.70
2023-05-02T07:31:09.526Z,19.80
2023-05-02T07:33:37.934Z,19.90
2023-05-02T07:36:06.720Z,19.90
2023-05-02T07:38:35.159Z,20.00
2023-05-02T07:41:03.528Z,20.00
2023-05-02T07:43:32.351Z,20.20
2023-05-02T07:46:04.878Z,20.20
2023-05-02T07:48:34.985Z,20.30
2023-05-02T07:51:10.001Z,20.40
2023-05-02T07:53:38.408Z,20.40
2023-05-02T07:56:20.286Z,20.50
2023-05-02T07:58:49.112Z,20.60
2023-05-02T08:01:17.488Z,20.60
2023-05-02T08:03:48.272Z,20.60
2023-05-02T08:06:16.735Z,20.80
2023-05-02T08:08:45.060Z,20.80
2023-05-02T08:11:13.541Z,20.90
2023-05-02T08:13:41.859Z,21.00
2023-05-02T08:16:10.223Z,21.00
2023-05-02T08:18:38.586Z,21.10
2023-05-02T08:21:08.697Z,21.20
2023-05-02T08:23:37.704Z,21.30
2023-05-02T08:26:06.376Z,21.30
2023-05-02T08:28:34.908Z,21.40
2023-05-02T08:31:03.527Z,21.50
2023-05-02T08:33:34.502Z,21.60
2023-05-02T08:36:11.372Z,21.60
2023-05-02T08:38:41.238Z,21.70
2023-05-02T08:41:12.790Z,21.70
2023-05-02T08:43:41.342Z,21.80
2023-05-02T08:46:13.143Z,21.80
2023-05-02T08:48:42.688Z,21.80
2023-05-02T08:51:12.856Z,21.80
2023-05-02T08:53:43.318Z,21.90
2023-05-02T08:56:13.289Z,21.90
2023-05-02T08:58:42.700Z,21.90
2023-05-02T09:01:15.356Z,21.90
2023-05-02T09:03:45.532Z,22.00
2023-05-02T09:06:15.291Z,22.10
2023-05-02T09:08:46.520Z,22.10
2023-05-02T09:11:16.602Z,22.10
2023-05-02T09:13:45.950Z,22.20
2023-05-02T09:16:16.595Z,22.30
2023-05-02T09:18:46.918Z,22.30
2023-05-02T09:21:19.781Z,22.40
2023-05-02T09:23:51.964Z,22.40
2023-05-02T09:26:21.989Z,22.40
2023-05-02T09:28:51.601Z,22.50
2023-05-02T09:31:43.546Z,22.50
2023-05-02T09:34:11.288Z,22.60
2023-05-02T09:36:44.107Z,22.70
2023-05-02T09:39:16.585Z,22.70
2023-05-02T09:41:46.701Z,22.80
2023-05-02T09:44:15.944Z,22.80
2023-05-02T09:46:47.097Z,22.90
2023-05-02T09:49:18.947Z,22.90
2023-05-02T09:51:48.303Z,23.00
2023-05-02T09:54:37.459Z,23.00
2023-05-02T09:57:07.308Z,23.00
2023-05-02T09:59:35.924Z,23.10
2023-05-02T10:02:07.284Z,23.10
2023-05-02T10:04:36.286Z,23.20
2023-05-02T10:07:06.723Z,23.30
2023-05-02T10:09:38.119Z,23.30
2023-05-02T10:12:08.565Z,23.30
2023-05-02T10:14:42.490Z,23.40
2023-05-02T10:17:15.884Z,23.40
2023-05-02T10:19:53.493Z,23.40
2023-05-02T10:22:23.297Z,23.50
2023-05-02T10:24:54.910Z,23.60
2023-05-02T10:27:23.912Z,23.60
2023-05-02T10:29:53.708Z,23.70
2023-05-02T10:32:23.838Z,23.70
2023-05-02T10:34:53.928Z,23.70
2023-05-02T10:37:53.937Z,23.80
2023-05-02T10:47:22.604Z,23.90
2023-05-02T10:49:52.725Z,24.00
2023-05-02T10:52:27.796Z,24.10
2023-05-02T10:55:18.118Z,24.10
2023-05-02T10:58:23.876Z,24.10
2023-05-02T11:00:53.679Z,24.20
2023-05-02T11:03:57.318Z,24.30
2023-05-02T11:06:26.326Z,24.30
2023-05-02T11:08:54.829Z,24.40
2023-05-02T11:11:43.199Z,24.40
2023-05-02T11:14:13.975Z,24.50
2023-05-02T11:17:09.711Z,24.50
2023-05-02T11:20:27.117Z,24.50
2023-05-02T11:22:57.957Z,24.50
2023-05-02T11:25:37.712Z,24.50
2023-05-02T11:28:08.972Z,24.60
2023-05-02T11:30:43.668Z,24.60
2023-05-02T11:33:22.665Z,24.70
2023-05-02T11:35:52.339Z,24.70
2023-05-02T11:38:22.729Z,24.70
2023-05-02T11:40:56.576Z,24.80
2023-05-02T11:43:26.678Z,24.80
2023-05-02T11:45:56.534Z,24.90
2023-05-02T11:48:28.051Z,24.90
2023-05-02T11:50:57.862Z,25.00
2023-05-02T11:53:29.496Z,25.00
2023-05-02T11:55:59.616Z,25.00
2023-05-02T11:58:30.305Z,25.00
2023-05-02T12:00:58.670Z,25.10
2023-05-02T12:03:31.287Z,25.10
2023-05-02T12:06:10.320Z,25.00
2023-05-02T12:08:39.282Z,25.00
2023-05-02T12:11:07.957Z,25.10
2023-05-02T12:13:36.610Z,25.10
2023-05-02T12:16:05.121Z,25.10
2023-05-02T12:18:35.121Z,25.10
2023-05-02T12:21:03.991Z,25.10
2023-05-02T12:23:32.858Z,25.20
2023-05-02T12:26:02.067Z,25.20
2023-05-02T12:28:30.378Z,25.20
2023-05-02T12:30:58.931Z,25.20
2023-05-02T12:33:27.435Z,25.20
2023-05-02T12:36:08.165Z,25.20
2023-05-02T12:38:37.049Z,25.30
2023-05-02T12:41:05.491Z,25.30
2023-05-02T12:43:47.266Z,25.30
2023-05-02T12:46:15.945Z,25.30
2023-05-02T12:48:46.202Z,25.30
2023-05-02T12:51:25.507Z,25.40
2023-05-02T12:54:21.301Z,25.40
2023-05-02T12:56:51.997Z,25.50
2023-05-02T12:59:30.662Z,25.40
2023-05-02T13:01:59.408Z,25.40
2023-05-02T13:04:49.189Z,25.50
2023-05-02T13:07:19.209Z,25.60
2023-05-02T13:10:03.315Z,25.60
2023-05-02T13:13:07.371Z,25.60
2023-05-02T13:15:35.646Z,25.60
2023-05-02T13:18:04.203Z,25.70
2023-05-02T13:20:32.634Z,25.70
2023-05-02T13:23:02.465Z,25.70
2023-05-02T13:25:31.050Z,25.70
2023-05-02T13:28:00.068Z,25.70
2023-05-02T13:30:28.372Z,25.70
2023-05-02T13:32:58.491Z,25.70
2023-05-02T13:35:27.036Z,25.70
2023-05-02T13:37:55.364Z,25.70
2023-05-02T13:40:25.447Z,25.70
2023-05-02T13:42:53.751Z,25.70
2023-05-02T13:45:22.338Z,25.80
2023-05-02T13:47:50.836Z,25.80
2023-05-02T13:50:25.761Z,25.90
2023-05-02T13:53:20.901Z,26.00
2023-05-02T13:55:50.919Z,26.00
2023-05-02T13:58:19.492Z,26.00
2023-05-02T14:00:47.818Z,25.90
2023-05-02T14:03:16.300Z,25.90
2023-05-02T14:05:45.153Z,25.90
2023-05-02T14:08:18.384Z,25.90
2023-05-02T14:10:49.910Z,25.90
2023-05-02T14:13:19.900Z,26.00
2023-05-02T14:15:48.369Z,26.10
2023-05-02T14:18:17.539Z,26.00
2023-05-02T14:20:45.966Z,26.10
2023-05-02T14:23:14.422Z,26.30
2023-05-02T14:25:42.901Z,26.30
2023-05-02T14:28:12.602Z,26.50
2023-05-02T14:30:43.854Z,26.80
2023-05-02T14:33:12.260Z,27.10
2023-05-02T14:35:40.747Z,27.00
2023-05-02T14:38:09.682Z,26.90
2023-05-02T14:40:38.260Z,26.80
2023-05-02T14:43:07.507Z,26.80
2023-05-02T14:45:35.954Z,26.80
2023-05-02T14:48:06.603Z,27.10
2023-05-02T14:50:35.154Z,27.20
2023-05-02T14:53:03.551Z,27.10
2023-05-02T14:55:31.957Z,26.90
2023-05-02T14:58:00.919Z,27.10
2023-05-02T15:00:29.246Z,27.40
2023-05-02T15:02:57.661Z,27.70
2023-05-02T15:05:27.523Z,27.80
2023-05-02T15:07:55.898Z,27.50
2023-05-02T15:10:24.276Z,27.20
2023-05-02T15:12:52.837Z,27.00
2023-05-02T15:15:25.071Z,27.20
2023-05-02T15:17:53.961Z,27.40
2023-05-02T15:20:22.365Z,27.50
2023-05-02T15:22:52.184Z,27.50
2023-05-02T15:25:20.557Z,27.40
2023-05-02T15:27:48.976Z,27.30
2023-05-02T15:30:18.086Z,27.10
2023-05-02T15:32:46.662Z,27.00
2023-05-02T15:35:15.030Z,26.80
2023-05-02T15:37:43.420Z,26.60
2023-05-02T15:40:14.496Z,26.50
2023-05-02T15:42:43.000Z,26.30
2023-05-02T15:45:14.223Z,26.20
2023-05-02T15:47:42.637Z,26.00
2023-05-02T15:50:12.460Z,25.90
2023-05-02T15:52:40.898Z,25.70
2023-05-02T15:55:09.781Z,25.50
2023-05-02T15:57:41.583Z,25.40
2023-05-02T16:00:16.785Z,25.30
2023-05-02T16:02:45.348Z,25.20
2023-05-02T16:05:14.092Z,25.10
2023-05-02T16:07:42.400Z,25.00
2023-05-02T16:10:11.740Z,24.80
2023-05-02T16:12:41.580Z,24.80
2023-05-02T16:15:22.569Z,24.60
2023-05-02T16:17:51.563Z,24.60
2023-05-02T16:20:20.606Z,24.40
2023-05-02T16:22:49.492Z,24.30
2023-05-02T16:25:18.882Z,24.20
2023-05-02T16:27:48.920Z,24.10
2023-05-02T16:30:17.637Z,24.00
2023-05-02T16:32:46.189Z,23.90
2023-05-02T16:35:14.719Z,23.80
2023-05-02T16:37:43.291Z,23.60
2023-05-02T16:40:12.750Z,23.50
2023-05-02T16:42:41.299Z,23.40
2023-05-02T16:45:12.796Z,23.30
2023-05-02T16:47:46.838Z,23.20
2023-05-02T16:50:15.290Z,23.20
2023-05-02T16:52:44.541Z,23.10
2023-05-02T16:55:13.019Z,23.00
2023-05-02T16:57:41.407Z,22.90
2023-05-02T17:00:14.872Z,22.90
2023-05-02T17:02:43.368Z,22.80
2023-05-02T17:05:12.002Z,22.60
2023-05-02T17:07:40.552Z,22.60
2023-05-02T17:10:10.139Z,22.50
2023-05-02T17:12:38.550Z,22.40
2023-05-02T17:15:08.027Z,22.30
2023-05-02T17:17:37.981Z,22.20
2023-05-02T17:20:07.453Z,22.20
2023-05-02T17:22:39.309Z,22.00
2023-05-02T17:25:12.862Z,22.00
2023-05-02T17:27:41.895Z,22.00
2023-05-02T17:30:11.294Z,21.80
2023-05-02T17:32:42.326Z,21.70
2023-05-02T17:35:13.903Z,21.70
2023-05-02T17:38:09.452Z,21.60
2023-05-02T17:40:40.281Z,21.60
2023-05-02T17:43:08.637Z,21.50
2023-05-02T17:45:39.495Z,21.40
2023-05-02T17:48:09.382Z,21.30
2023-05-02T17:50:41.137Z,21.20
2023-05-02T17:53:09.745Z,21.20
2023-05-02T17:55:38.672Z,21.10
2023-05-02T17:58:07.213Z,21.10
2023-05-02T18:00:35.660Z,21.00
2023-05-02T18:03:04.228Z,20.90
2023-05-02T18:05:39.192Z,20.80
2023-05-02T18:08:07.960Z,20.70
2023-05-02T18:10:38.459Z,20.70
2023-05-02T18:13:06.963Z,20.70
2023-05-02T18:15:35.442Z,20.70
2023-05-02T18:18:03.906Z,20.50
2023-05-02T18:20:33.749Z,20.50
2023-05-02T18:23:02.512Z,20.40
2023-05-02T18:25:34.763Z,20.40
2023-05-02T18:28:03.170Z,20.30
2023-05-02T18:30:31.579Z,20.20
2023-05-02T18:33:00.049Z,20.20
2023-05-02T18:35:28.426Z,20.10
2023-05-02T18:37:58.315Z,20.00
2023-05-02T18:40:28.326Z,19.90
2023-05-02T18:42:56.716Z,19.80
2023-05-02T18:45:25.031Z,19.80
2023-05-02T18:47:53.529Z,19.80
2023-05-02T18:50:26.299Z,19.80
2023-05-02T18:52:54.781Z,19.70
2023-05-02T18:55:25.468Z,19.70
2023-05-02T18:57:54.800Z,19.70
2023-05-02T19:00:24.503Z,19.70
2023-05-02T19:02:55.896Z,19.50
2023-05-02T19:05:26.600Z,19.50
2023-05-02T19:07:54.942Z,19.50
2023-05-02T19:10:26.394Z,19.40
2023-05-02T19:12:55.046Z,19.30
2023-05-02T19:15:28.149Z,19.40
2023-05-02T19:17:58.953Z,19.30
2023-05-02T19:20:32.165Z,19.30
2023-05-02T19:23:18.224Z,19.20
2023-05-02T19:25:49.566Z,19.20
2023-05-02T19:28:18.069Z,19.10
2023-05-02T19:30:46.577Z,19.10
2023-05-02T19:33:14.983Z,19.10
2023-05-02T19:35:43.399Z,19.00
2023-05-02T19:38:11.806Z,19.00
2023-05-02T19:40:40.694Z,19.00
2023-05-02T19:43:11.042Z,18.90
2023-05-02T19:45:39.472Z,18.90
2023-05-02T19:48:08.365Z,18.90
2023-05-02T19:50:37.933Z,18.80
2023-05-02T19:53:06.237Z,18.80
2023-05-02T19:55:34.624Z,18.70
2023-05-02T19:58:04.459Z,18.70
2023-05-02T20:00:34.349Z,18.70
2023-05-02T20:03:07.140Z,18.70
2023-05-02T20:05:35.565Z,18.60
2023-05-02T20:08:03.962Z,18.60
2023-05-02T20:10:34.838Z,18.60
2023-05-02T20:13:03.319Z,18.60
2023-05-02T20:15:33.122Z,18.60
2023-05-02T20:18:02.297Z,18.50
2023-05-02T20:20:31.499Z,18.50
2023-05-02T20:22:59.976Z,18.40
2023-05-02T20:25:28.780Z,18.40
2023-05-02T20:27:57.327Z,18.40
2023-05-02T20:30:26.337Z,18.30
2023-05-02T20:32:59.443Z,18.30
2023-05-02T20:35:32.701Z,18.20
2023-05-02T20:38:01.860Z,18.20
2023-05-02T20:40:32.461Z,18.20
2023-05-02T20:43:02.020Z,18.10
2023-05-02T20:45:30.504Z,18.10
2023-05-02T20:48:00.447Z,18.10
2023-05-02T20:50:28.998Z,18.00
2023-05-02T20:52:57.452Z,18.00
2023-05-02T20:55:25.992Z,18.00
2023-05-02T20:57:54.513Z,17.90
2023-05-02T21:00:22.987Z,17.90
2023-05-02T21:02:51.575Z,17.90
2023-05-02T21:05:21.385Z,17.80
2023-05-02T21:07:49.930Z,17.80
2023-05-02T21:10:18.484Z,17.70
2023-05-02T21:12:46.850Z,17.70
2023-05-02T21:15:15.526Z,17.70
2023-05-02T21:17:44.231Z,17.70
2023-05-02T21:20:13.915Z,17.60
2023-05-02T21:22:43.848Z,17.60
2023-05-02T21:25:12.750Z,17.50
2023-05-02T21:27:41.216Z,17.50
2023-05-02T21:30:10.832Z,17.40
2023-05-02T21:32:39.298Z,17.40
2023-05-02T21:35:08.524Z,17.40
2023-05-02T21:37:37.128Z,17.30
2023-05-02T21:40:08.619Z,17.30
2023-05-02T21:42:37.153Z,17.30
2023-05-02T21:45:06.118Z,17.20
2023-05-02T21:47:34.633Z,17.20
2023-05-02T21:50:04.429Z,17.20
2023-05-02T21:52:33.087Z,17.20
2023-05-02T21:55:01.498Z,17.10
2023-05-02T21:57:31.321Z,17.10
2023-05-02T21:59:59.996Z,17.10
2023-05-02T22:02:28.896Z,17.10
2023-05-02T22:04:57.950Z,17.00
2023-05-02T22:07:26.378Z,17.00
2023-05-02T22:09:54.845Z,17.00
2023-05-02T22:12:23.881Z,16.90
2023-05-02T22:14:53.764Z,16.90
2023-05-02T22:17:22.901Z,16.90
2023-05-02T22:19:52.262Z,16.90
2023-05-02T22:22:20.730Z,16.80
2023-05-02T22:24:49.168Z,16.80
2023-05-02T22:27:17.503Z,16.80
2023-05-02T22:29:45.898Z,16.80
2023-05-02T22:32:15.907Z,16.70
2023-05-02T22:34:44.378Z,16.70
2023-05-02T22:37:12.843Z,16.70
2023-05-02T22:39:41.564Z,16.70
2023-05-02T22:42:09.953Z,16.70
2023-05-02T22:44:50.453Z,16.60
2023-05-02T22:47:23.877Z,16.60
2023-05-02T22:49:56.818Z,16.60
2023-05-02T22:52:28.376Z,16.60
2023-05-02T22:54:56.657Z,16.60
2023-05-02T22:57:25.283Z,16.60
2023-05-02T22:59:53.682Z,16.60
2023-05-02T23:02:23.496Z,16.60
2023-05-02T23:04:52.507Z,16.60
2023-05-02T23:07:20.970Z,16.60
2023-05-02T23:09:49.424Z,16.60
2023-05-02T23:12:17.787Z,16.60
2023-05-02T23:14:46.295Z,16.60
2023-05-02T23:17:14.707Z,16.60
2023-05-02T23:19:44.403Z,16.60
2023-05-02T23:22:12.754Z,16.60
2023-05-02T23:24:41.296Z,16.60
2023-05-02T23:27:09.708Z,16.60
2023-05-02T23:29:38.058Z,16.60
2023-05-02T23:32:08.159Z,16.60
2023-05-02T23:34:37.303Z,16.60
2023-05-02T23:37:08.104Z,16.50
2023-05-02T23:39:36.378Z,16.50
2023-05-02T23:42:05.038Z,16.50
2023-05-02T23:44:33.565Z,16.50
2023-05-02T23:47:02.049Z,16.50
2023-05-02T23:49:30.425Z,16.50
2023-05-02T23:51:58.684Z,16.40
2023-05-02T23:54:30.800Z,16.40
2023-05-02T23:57:00.657Z,16.40
2023-05-02T23:59:28.982Z,16.30
